Yarker, Canada
Current Conditions -  °F | °C
As of 11:00 PM on Saturday 25 Oct 2014 (Local Time) from CYGK Reporting Station
Scattered Clouds Scattered Clouds  
Wind Chill: 50°   Ceiling: Unl
Heat Index: 50°   Visibility: 15mi
Dew Point: 41°   Wind: 8mph
Humidity: 71%   Direction: 260°W
Pressure: 29.53"   Gusts: NA
Location:  44.37°N, 76.77°W
Report Text: CYGK 260300Z 26007KT 15SM SCT060 10/05 A2953 RMK SC3 LAST STFD OBS/NEXT 261000 UTC SLP999
Loading
Personal Weather Stations






























Interactive Weather Map
Tropical Storm Tracking
New forecast layout! Learn more

10-Day Weather Forecast

Advertisements
Track Severe Weather on mobile